Time;durP1;ratioP1;P1;durP2;ratioP2;P2;SDS_P1;SDS_P2;PMS_P1;PMS_P2;Temp;Humidity;BMP_temperature;BMP_pressure;BME280_temperature;BME280_humidity;BME280_pressure;Samples;Min_cycle;Max_cycle;Signal;HPM_P1;HPM_P2
2021/04/30 00:02:07;;;;;;;19.88;12.98;;;;;;;13.24;88.56;96865.31;5023269;28;20091;-63
2021/04/30 00:04:33;;;;;;;22.88;11.82;;;;;;;12.43;88.91;96752.09;5023588;28;20088;-61
2021/04/30 00:06:59;;;;;;;18.23;12.50;;;;;;;13.18;90.55;96861.28;5023037;28;20530;-61
2021/04/30 00:09:25;;;;;;;19.15;13.23;;;;;;;13.17;91.10;96859.69;5023167;28;20037;-61
2021/04/30 00:11:50;;;;;;;20.38;12.65;;;;;;;13.01;91.10;96816.75;5022884;28;20033;-62
2021/04/30 00:14:20;;;;;;;18.65;12.43;;;;;;;13.22;91.33;96856.53;5023182;28;20037;-62
2021/04/30 00:16:46;;;;;;;18.35;11.85;;;;;;;13.30;90.71;96863.72;5022674;28;20037;-62
2021/04/30 00:19:12;;;;;;;14.30;11.20;;;;;;;13.31;90.76;96861.72;5023299;28;20512;-61
2021/04/30 00:21:39;;;;;;;18.17;12.73;;;;;;;13.38;91.16;96859.78;5024352;28;20048;-61
2021/04/30 00:24:09;;;;;;;17.77;11.27;;;;;;;13.17;90.43;96804.06;5022731;28;20037;-61
2021/04/30 00:26:35;;;;;;;22.85;12.20;;;;;;;13.47;89.66;96851.84;5022354;28;20040;-61
2021/04/30 00:29:01;;;;;;;17.77;12.35;;;;;;;13.48;89.71;96847.88;5022866;28;20026;-60
2021/04/30 00:31:26;;;;;;;19.70;12.60;;;;;;;13.03;90.32;96809.59;5022493;28;20049;-61
2021/04/30 00:33:52;;;;;;;22.00;13.20;;;;;;;12.64;93.03;96830.84;5023617;28;20064;-61
2021/04/30 00:36:18;;;;;;;23.55;14.00;;;;;;;11.87;95.52;96745.03;5022056;28;20065;-61
2021/04/30 00:38:43;;;;;;;27.80;16.27;;;;;;;12.75;93.90;96819.75;5024212;28;20104;-62
2021/04/30 00:41:09;;;;;;;29.25;18.75;;;;;;;12.88;92.82;96823.81;5023921;28;20029;-61
2021/04/30 00:43:35;;;;;;;24.25;16.20;;;;;;;12.66;91.78;96797.88;5022631;28;20040;-62
2021/04/30 00:46:01;;;;;;;22.42;16.50;;;;;;;12.79;93.00;96832.47;5022252;28;20033;-61
2021/04/30 00:48:27;;;;;;;23.88;17.00;;;;;;;12.77;92.76;96807.06;5022796;28;20578;-61
2021/04/30 00:50:53;;;;;;;33.13;17.55;;;;;;;12.94;92.37;96811.13;5023685;28;20040;-61
2021/04/30 00:53:19;;;;;;;23.17;14.77;;;;;;;13.01;92.27;96839.00;5023835;28;20064;-60
2021/04/30 00:55:44;;;;;;;18.27;13.95;;;;;;;13.10;91.25;96840.19;5022312;28;20065;-60
2021/04/30 00:58:10;;;;;;;23.98;15.20;;;;;;;13.19;91.09;96840.66;5024566;28;20033;-62
2021/04/30 01:00:37;;;;;;;25.73;14.77;;;;;;;12.42;91.39;96740.22;5023478;28;20039;-61
2021/04/30 01:03:07;;;;;;;24.55;15.40;;;;;;;12.99;92.40;96828.19;5022747;28;20029;-60
2021/04/30 01:05:33;;;;;;;24.88;16.33;;;;;;;13.04;92.25;96827.84;5024209;28;20123;-60
2021/04/30 01:07:58;;;;;;;21.40;14.15;;;;;;;12.64;93.14;96775.25;5024150;28;20033;-61
2021/04/30 01:10:24;;;;;;;21.25;12.93;;;;;;;13.09;92.13;96810.78;4330613;28;20003781;-60
2021/04/30 01:12:49;;;;;;;23.92;15.10;;;;;;;13.31;92.01;96826.38;5024299;28;20462;-63
2021/04/30 01:15:17;;;;;;;21.08;13.45;;;;;;;12.87;91.19;96750.72;5022254;28;20136;-61
2021/04/30 01:17:44;;;;;;;16.77;12.07;;;;;;;13.40;90.95;96835.13;5024213;28;20488;-61
2021/04/30 01:20:11;;;;;;;18.40;12.52;;;;;;;13.32;90.82;96811.28;5023516;28;20053;-60
2021/04/30 01:22:42;;;;;;;21.10;12.95;;;;;;;13.05;90.74;96773.84;5023663;28;20060;-61
2021/04/30 01:25:13;;;;;;;17.55;12.70;;;;;;;13.30;91.53;96833.13;5023354;28;20373;-60
2021/04/30 01:27:40;;;;;;;16.00;12.68;;;;;;;13.34;91.16;96847.06;5022569;28;20040;-61
2021/04/30 01:30:12;;;;;;;16.85;11.10;;;;;;;13.02;89.98;96779.41;5029059;28;20124;-62
2021/04/30 01:32:37;;;;;;;16.45;12.18;;;;;;;13.28;90.51;96823.56;5024167;28;20040;-62
2021/04/30 01:35:08;;;;;;;17.25;13.48;;;;;;;13.23;90.59;96835.88;5023740;28;20501;-61
2021/04/30 01:37:34;;;;;;;29.65;15.50;;;;;;;12.66;91.04;96781.19;5021902;28;20033;-61
2021/04/30 01:40:00;;;;;;;22.80;15.85;;;;;;;12.69;91.69;96811.00;5023668;28;20033;-61
2021/04/30 01:42:26;;;;;;;26.55;16.42;;;;;;;12.69;92.17;96791.56;5023411;28;20569;-61
2021/04/30 01:44:51;;;;;;;26.17;16.40;;;;;;;12.68;94.27;96839.97;5023361;28;20069;-62
2021/04/30 01:47:18;;;;;;;26.95;18.05;;;;;;;12.79;94.12;96840.81;5037897;28;20043;-61
2021/04/30 01:49:44;;;;;;;24.48;17.40;;;;;;;12.78;94.36;96836.47;5024052;28;20061;-61
2021/04/30 01:52:09;;;;;;;24.05;17.52;;;;;;;12.79;94.53;96826.94;5037856;28;20045;-61
2021/04/30 01:54:35;;;;;;;25.77;17.95;;;;;;;12.77;94.95;96807.06;5023435;28;20026;-60
2021/04/30 01:57:00;;;;;;;22.20;16.90;;;;;;;12.97;95.32;96849.25;5022855;28;20037;-60
2021/04/30 01:59:26;;;;;;;22.00;14.38;;;;;;;12.98;94.13;96823.03;5023718;28;20037;-60
2021/04/30 02:01:51;;;;;;;23.10;14.38;;;;;;;12.61;93.12;96781.59;5023010;28;20063;-60
2021/04/30 02:04:17;;;;;;;20.75;14.48;;;;;;;12.79;93.92;96799.13;5023255;28;20052;-61
2021/04/30 02:06:45;;;;;;;21.65;15.30;;;;;;;12.71;93.22;96780.81;5023259;28;20029;-60
2021/04/30 02:09:10;;;;;;;21.10;13.68;;;;;;;12.66;93.56;96775.63;5023516;28;20071;-62
2021/04/30 02:11:36;;;;;;;20.90;14.80;;;;;;;12.94;94.01;96823.03;5022777;28;20065;-60
2021/04/30 02:14:04;;;;;;;25.65;13.95;;;;;;;12.13;95.85;96766.22;5023710;28;20402;-62
2021/04/30 02:16:31;;;;;;;20.38;13.63;;;;;;;12.73;94.27;96850.72;5020847;28;20504;-60
2021/04/30 02:18:57;;;;;;;21.95;13.98;;;;;;;12.54;95.07;96831.56;5021752;28;20428;-61
2021/04/30 02:21:22;;;;;;;18.70;13.05;;;;;;;12.65;96.08;96857.44;5037722;28;20029;-60
2021/04/30 02:23:48;;;;;;;18.55;13.23;;;;;;;12.77;95.42;96857.09;5023720;28;20399;-59
2021/04/30 02:26:16;;;;;;;18.80;12.90;;;;;;;12.65;94.92;96860.19;5023027;28;20029;-60
2021/04/30 02:28:45;;;;;;;21.02;13.95;;;;;;;12.90;95.08;96844.44;5023938;28;20044;-62
2021/04/30 02:31:10;;;;;;;20.83;12.88;;;;;;;12.95;95.40;96829.38;5023103;28;20046;-61
2021/04/30 02:33:36;;;;;;;17.35;13.77;;;;;;;12.95;95.37;96832.16;5023487;28;20030;-63
2021/04/30 02:36:02;;;;;;;16.08;12.68;;;;;;;13.09;94.13;96841.38;5023025;28;20041;-61
2021/04/30 02:38:28;;;;;;;20.42;12.38;;;;;;;13.06;94.30;96836.63;5021703;28;20048;-61
2021/04/30 02:40:53;;;;;;;18.75;12.60;;;;;;;13.08;95.00;96839.00;5022857;28;20030;-62
2021/04/30 02:43:20;;;;;;;16.10;11.77;;;;;;;13.20;94.21;96833.06;5023631;28;20029;-61
2021/04/30 02:45:51;;;;;;;25.58;13.75;;;;;;;13.03;92.12;96848.53;5023714;28;20030;-61
2021/04/30 02:48:24;;;;;;;21.20;14.25;;;;;;;12.16;95.35;96793.22;5023424;28;20030;-61
2021/04/30 02:50:50;;;;;;;22.35;15.40;;;;;;;12.39;96.27;96846.56;5022716;28;20025;-60
2021/04/30 02:53:15;;;;;;;19.05;15.05;;;;;;;11.88;95.09;96776.38;5023085;28;20045;-61
2021/04/30 02:55:40;;;;;;;21.65;16.38;;;;;;;12.35;94.95;96826.28;5020750;28;20641;-60
2021/04/30 02:58:06;;;;;;;22.63;15.93;;;;;;;12.44;94.63;96860.06;5024815;28;20107;-61
2021/04/30 03:00:32;;;;;;;21.30;15.50;;;;;;;11.68;95.17;96711.22;5024621;28;20037;-60
2021/04/30 03:02:58;;;;;;;26.00;15.68;;;;;;;12.17;96.95;96845.59;5026649;28;20398;-60
2021/04/30 03:05:24;;;;;;;25.45;16.15;;;;;;;12.22;95.53;96807.56;5026029;28;20084;-60
2021/04/30 03:07:50;;;;;;;22.38;14.90;;;;;;;11.86;95.30;96750.97;5024680;28;20496;-60
2021/04/30 03:10:17;;;;;;;23.40;16.08;;;;;;;12.57;94.20;96847.44;5025842;28;20072;-61
2021/04/30 03:12:42;;;;;;;19.38;14.82;;;;;;;12.07;93.77;96768.59;5026115;28;20513;-61
2021/04/30 03:15:09;;;;;;;24.10;15.93;;;;;;;12.36;94.84;96819.53;5025777;28;20057;-61
2021/04/30 03:17:35;;;;;;;22.65;16.20;;;;;;;12.09;93.92;96740.44;5024668;28;20926;-60
2021/04/30 03:20:00;;;;;;;21.25;16.92;;;;;;;12.83;93.39;96863.09;5041315;28;20029;-61
2021/04/30 03:22:26;;;;;;;21.85;15.45;;;;;;;12.79;93.63;96876.97;5026281;28;20039;-61
2021/04/30 03:24:52;;;;;;;19.92;15.30;;;;;;;12.66;94.42;96886.78;5026034;28;20025;-61
2021/04/30 03:27:18;;;;;;;22.42;16.23;;;;;;;12.55;95.29;96894.25;5025304;28;20041;-62
2021/04/30 03:29:43;;;;;;;23.40;16.08;;;;;;;12.13;98.06;96882.84;5025807;28;20033;-61
2021/04/30 03:32:09;;;;;;;29.92;17.50;;;;;;;12.00;97.76;96817.69;5025203;28;20065;-62
2021/04/30 03:34:35;;;;;;;27.42;16.15;;;;;;;11.66;97.23;96755.19;5024179;28;20068;-61
2021/04/30 03:37:02;;;;;;;23.02;16.70;;;;;;;12.28;95.20;96833.78;5025418;28;20043;-61
2021/04/30 03:39:27;;;;;;;23.05;15.65;;;;;;;12.87;94.19;96875.81;5025824;28;20040;-62
2021/04/30 03:41:53;;;;;;;26.48;16.40;;;;;;;13.00;93.53;96877.09;5024258;28;20025;-60
2021/04/30 03:44:18;;;;;;;26.65;16.90;;;;;;;12.58;92.99;96810.16;5026017;28;20045;-60
2021/04/30 03:46:44;;;;;;;30.20;17.98;;;;;;;13.00;94.59;96881.84;5025317;28;20028;-61
2021/04/30 03:49:09;;;;;;;31.75;18.00;;;;;;;13.17;93.97;96881.94;5023781;28;20041;-61
2021/04/30 03:51:34;;;;;;;25.60;16.48;;;;;;;13.22;93.39;96876.00;5024802;28;20571;-61
2021/04/30 03:54:00;;;;;;;24.50;16.15;;;;;;;13.28;93.28;96880.00;5025692;28;20512;-60
2021/04/30 03:56:25;;;;;;;26.88;15.18;;;;;;;13.23;94.00;96869.25;5024870;28;20032;-61
2021/04/30 03:58:51;;;;;;;23.98;15.90;;;;;;;13.19;94.08;96868.44;5025912;28;20053;-60
2021/04/30 04:01:16;;;;;;;25.55;16.05;;;;;;;13.16;93.01;96855.34;5025078;28;20041;-61
2021/04/30 04:03:42;;;;;;;21.25;14.82;;;;;;;12.67;92.65;96757.81;5025181;28;20033;-63
2021/04/30 04:06:07;;;;;;;20.83;14.95;;;;;;;13.25;93.38;96878.00;5024832;28;20025;-61
2021/04/30 04:08:32;;;;;;;21.17;14.10;;;;;;;13.39;93.10;96883.63;5023850;28;20029;-61
2021/04/30 04:10:58;;;;;;;29.40;16.75;;;;;;;13.49;93.06;96893.19;5024850;28;20159;-60
2021/04/30 04:13:25;;;;;;;17.83;12.35;;;;;;;13.17;92.07;96826.31;5025801;28;20041;-60
2021/04/30 04:15:52;;;;;;;20.77;12.98;;;;;;;13.79;91.52;96902.03;5023878;28;20079;-61
2021/04/30 04:18:19;;;;;;;21.77;16.08;;;;;;;13.95;90.97;96896.09;5024919;28;20378;-61
2021/04/30 04:20:45;;;;;;;26.15;13.82;;;;;;;14.15;89.89;96886.16;5024242;28;20033;-61
2021/04/30 04:23:10;;;;;;;19.33;13.50;;;;;;;14.36;88.33;96891.75;5024956;28;20045;-61
2021/04/30 04:25:37;;;;;;;22.00;12.50;;;;;;;14.58;87.35;96898.91;5023130;28;20083;-63
2021/04/30 04:28:03;;;;;;;17.85;11.77;;;;;;;14.80;86.33;96906.06;5024910;28;20041;-60
2021/04/30 04:30:29;;;;;;;17.67;11.50;;;;;;;14.94;85.49;96890.09;5011832;28;20493;-60
2021/04/30 04:32:55;;;;;;;16.30;11.82;;;;;;;15.27;83.49;96880.41;5005065;28;20045;-61
2021/04/30 04:35:21;;;;;;;20.17;14.73;;;;;;;14.32;83.82;96852.75;5003338;28;20493;-61
2021/04/30 04:37:46;;;;;;;20.25;15.20;;;;;;;14.05;87.60;96804.19;5003138;28;20096;-62
2021/04/30 04:40:13;;;;;;;13.85;10.80;;;;;;;14.45;84.60;96833.63;5004364;28;20073;-61
2021/04/30 04:42:42;;;;;;;22.30;13.35;;;;;;;14.08;90.89;96914.00;5003293;28;20037;-61
2021/04/30 04:45:09;;;;;;;20.55;13.80;;;;;;;14.45;88.55;96878.22;5004596;28;20062;-62
2021/04/30 04:47:35;;;;;;;17.17;11.55;;;;;;;15.00;85.83;96898.84;5004644;28;20111;-61
2021/04/30 04:50:00;;;;;;;17.77;13.98;;;;;;;15.12;83.68;96873.31;5004842;28;20041;-61
2021/04/30 04:52:26;;;;;;;17.90;12.38;;;;;;;15.08;84.25;96866.94;5002688;28;20513;-62
2021/04/30 04:54:51;;;;;;;16.48;12.27;;;;;;;15.19;82.59;96835.00;5004503;28;20092;-61
2021/04/30 04:57:17;;;;;;;20.15;14.15;;;;;;;15.43;83.32;96917.06;5003910;28;20467;-62
2021/04/30 04:59:43;;;;;;;19.25;12.63;;;;;;;15.70;83.57;96897.78;5004561;28;20034;-63
2021/04/30 05:02:08;;;;;;;23.58;13.30;;;;;;;16.04;82.00;96907.19;5003864;28;20032;-62
2021/04/30 05:04:33;;;;;;;19.35;12.40;;;;;;;15.89;80.62;96805.91;5004208;28;20037;-62
2021/04/30 05:06:59;;;;;;;18.20;11.88;;;;;;;16.89;78.40;96901.69;5002140;28;20429;-61
2021/04/30 05:09:27;;;;;;;17.30;11.88;;;;;;;17.19;75.73;96915.78;5002760;28;20529;-61
2021/04/30 05:11:53;;;;;;;16.48;11.98;;;;;;;17.42;75.55;96907.53;5002512;28;20030;-61
2021/04/30 05:14:19;;;;;;;20.63;12.50;;;;;;;17.78;73.84;96925.50;5004235;28;20044;-62
2021/04/30 05:16:44;;;;;;;16.60;11.60;;;;;;;17.90;72.27;96916.53;5001976;28;20139;-60
2021/04/30 05:19:09;;;;;;;15.23;11.25;;;;;;;18.02;72.46;96911.16;5004561;28;20029;-61
2021/04/30 05:21:36;;;;;;;14.65;10.98;;;;;;;18.12;71.63;96931.84;5002958;28;20090;-63
2021/04/30 05:24:02;;;;;;;16.38;12.20;;;;;;;17.12;74.63;96899.09;5004743;28;20131;-61
2021/04/30 05:26:28;;;;;;;13.93;11.25;;;;;;;15.17;74.61;96607.81;5002157;28;20441;-62
2021/04/30 05:28:55;;;;;;;19.02;11.88;;;;;;;17.15;75.61;96929.03;5004782;28;20036;-61
2021/04/30 05:31:21;;;;;;;22.00;12.38;;;;;;;17.60;74.27;96919.34;5038639;28;20044;-61
2021/04/30 05:33:46;;;;;;;17.88;12.00;;;;;;;17.98;71.94;96920.84;5023949;28;20034;-61
2021/04/30 05:36:11;;;;;;;16.60;11.25;;;;;;;18.29;70.40;96915.97;5023042;28;20083;-61
2021/04/30 05:38:37;;;;;;;21.27;11.50;;;;;;;17.87;72.91;96942.59;5022026;28;20052;-61
2021/04/30 05:41:02;;;;;;;19.75;11.52;;;;;;;18.35;71.09;96936.72;5022846;28;20033;-61
2021/04/30 05:43:28;;;;;;;15.77;12.05;;;;;;;18.57;69.50;96944.44;5021872;28;20038;-61
2021/04/30 05:45:53;;;;;;;16.45;12.30;;;;;;;18.80;68.80;96941.63;5022746;28;20037;-60
2021/04/30 05:48:18;;;;;;;17.00;11.13;;;;;;;18.41;70.62;96929.44;5022128;28;20037;-62
2021/04/30 05:50:44;;;;;;;18.30;12.20;;;;;;;18.38;69.80;96891.81;5017362;28;20323;-62
2021/04/30 05:53:09;;;;;;;18.67;11.82;;;;;;;19.06;68.26;96946.38;5020782;28;20076;-62
2021/04/30 05:55:35;;;;;;;16.25;10.98;;;;;;;18.52;68.02;96857.94;5020798;28;20029;-63
2021/04/30 05:58:01;;;;;;;17.40;10.55;;;;;;;18.95;67.27;96898.03;5023083;28;20045;-62
2021/04/30 06:00:26;;;;;;;23.75;12.30;;;;;;;19.33;66.64;96947.09;5022471;28;20032;-61
2021/04/30 06:02:52;;;;;;;19.70;12.50;;;;;;;19.46;66.05;96967.72;5019484;28;20500;-62
2021/04/30 06:05:17;;;;;;;21.77;12.23;;;;;;;19.23;65.36;96897.53;5016962;28;20531;-63
2021/04/30 06:07:43;;;;;;;20.80;12.60;;;;;;;19.00;64.86;96816.13;5022544;28;20104;-62
2021/04/30 06:10:09;;;;;;;19.95;12.50;;;;;;;19.52;64.85;96901.38;5022760;28;20044;-63
2021/04/30 06:12:34;;;;;;;21.75;12.63;;;;;;;19.77;63.85;96900.09;5022362;28;20033;-60
2021/04/30 06:15:00;;;;;;;18.80;12.73;;;;;;;19.91;62.42;96885.72;5021851;28;20026;-61
2021/04/30 06:17:26;;;;;;;15.32;11.63;;;;;;;19.56;63.00;96828.25;5021692;28;20041;-62
2021/04/30 06:19:51;;;;;;;19.15;9.80;;;;;;;19.40;62.85;96798.09;5023142;28;20457;-61
2021/04/30 06:22:17;;;;;;;14.20;11.60;;;;;;;20.27;62.16;96903.41;5021208;28;20041;-62
2021/04/30 06:24:42;;;;;;;18.05;12.10;;;;;;;19.39;62.43;96748.72;5017646;28;20075;-65
2021/04/30 06:27:08;;;;;;;16.88;12.25;;;;;;;20.28;62.33;96872.00;5019614;28;20511;-64
2021/04/30 06:29:33;;;;;;;22.10;12.73;;;;;;;19.82;61.72;96787.13;5020384;28;20045;-61
2021/04/30 06:31:59;;;;;;;17.70;10.55;;;;;;;20.39;61.62;96886.63;5020730;28;20481;-67
2021/04/30 06:34:25;;;;;;;21.90;11.70;;;;;;;20.72;61.39;96891.03;5022427;28;20052;-63
2021/04/30 06:36:54;;;;;;;18.90;9.90;;;;;;;20.78;60.52;96888.47;5023343;28;20037;-68
2021/04/30 06:39:23;;;;;;;14.13;10.50;;;;;;;21.01;60.72;96927.72;5025389;28;20049;-66
2021/04/30 06:41:49;;;;;;;18.33;10.07;;;;;;;21.19;60.54;96967.50;5025444;28;20069;-65
2021/04/30 06:44:14;;;;;;;16.80;10.05;;;;;;;21.28;59.30;96978.16;5026509;28;20070;-62
2021/04/30 06:46:40;;;;;;;14.82;10.02;;;;;;;20.82;59.90;96908.88;5025901;28;20462;-64
2021/04/30 06:49:06;;;;;;;19.77;10.45;;;;;;;19.55;60.08;96675.72;5025050;28;20080;-61
2021/04/30 06:51:32;;;;;;;20.58;9.95;;;;;;;21.06;59.11;96899.03;5025703;28;20050;-62
2021/04/30 06:53:57;;;;;;;17.80;9.90;;;;;;;21.20;59.19;96870.47;5025964;28;20060;-65
2021/04/30 06:56:25;;;;;;;14.30;8.88;;;;;;;21.59;57.93;96892.72;5032305;28;20556;-64
2021/04/30 06:58:51;;;;;;;16.80;10.35;;;;;;;21.98;57.00;96919.81;5027309;28;20144;-64
2021/04/30 07:01:18;;;;;;;18.00;9.50;;;;;;;22.04;57.03;96918.81;5024969;28;20037;-65
2021/04/30 07:03:46;;;;;;;17.00;9.85;;;;;;;20.36;56.66;96658.81;5025792;28;20040;-62
2021/04/30 07:06:12;;;;;;;15.15;9.93;;;;;;;21.41;56.52;96802.25;5022904;28;20036;-63
2021/04/30 07:08:37;;;;;;;16.45;9.70;;;;;;;22.12;55.87;96914.56;5025601;28;20034;-63
2021/04/30 07:11:03;;;;;;;19.48;10.15;;;;;;;22.07;55.95;96912.28;5040010;28;20034;-63
2021/04/30 07:13:28;;;;;;;16.85;9.82;;;;;;;22.07;55.33;96917.94;5025987;28;20097;-64
2021/04/30 07:15:54;;;;;;;18.23;10.80;;;;;;;22.08;56.15;96913.84;5024730;28;20400;-64
2021/04/30 07:18:20;;;;;;;16.45;9.85;;;;;;;20.53;56.03;96668.78;5023474;28;20037;-63
2021/04/30 07:20:47;;;;;;;12.90;9.60;;;;;;;21.91;55.62;96870.06;5024522;28;20116;-63
2021/04/30 07:23:13;;;;;;;20.38;10.30;;;;;;;21.90;55.53;96845.91;5025139;28;20137;-62
2021/04/30 07:25:38;;;;;;;16.23;9.85;;;;;;;22.08;55.91;96874.34;5024917;28;20457;-62
2021/04/30 07:28:04;;;;;;;17.02;9.27;;;;;;;21.36;56.00;96759.72;5032140;28;20045;-64
2021/04/30 07:30:30;;;;;;;20.42;10.25;;;;;;;22.49;56.20;96913.78;5024625;28;20068;-62
2021/04/30 07:32:56;;;;;;;12.70;9.57;;;;;;;22.52;55.50;96911.31;5024310;28;20048;-65
2021/04/30 07:35:21;;;;;;;16.50;10.30;;;;;;;21.85;56.42;96792.06;5023773;28;20042;-64
2021/04/30 07:37:47;;;;;;;17.30;10.27;;;;;;;22.77;55.92;96931.06;5023879;28;20053;-65
2021/04/30 07:40:13;;;;;;;15.00;9.95;;;;;;;22.78;56.47;96910.09;5021998;28;20060;-64
2021/04/30 07:42:38;;;;;;;14.70;9.75;;;;;;;22.93;55.65;96923.28;5025217;28;20041;-64
2021/04/30 07:45:04;;;;;;;18.75;9.80;;;;;;;23.02;54.83;96914.09;5023535;28;20044;-64
2021/04/30 07:47:30;;;;;;;20.45;10.25;;;;;;;23.04;55.20;96920.09;5022898;28;20041;-65
2021/04/30 07:49:56;;;;;;;17.20;9.75;;;;;;;23.12;54.79;96919.41;5025383;28;20029;-64
2021/04/30 07:52:22;;;;;;;12.77;9.85;;;;;;;22.94;54.65;96901.44;5023840;28;20457;-63
2021/04/30 07:54:47;;;;;;;13.32;9.43;;;;;;;23.15;54.23;96914.84;5023566;28;20026;-64
2021/04/30 07:57:13;;;;;;;18.25;10.27;;;;;;;22.60;54.04;96842.09;5024001;28;20029;-64
2021/04/30 07:59:38;;;;;;;18.45;9.45;;;;;;;23.26;53.95;96901.16;5024633;28;20032;-65
2021/04/30 08:02:04;;;;;;;17.17;9.95;;;;;;;23.20;52.78;96869.84;5038764;28;20022;-64
2021/04/30 08:04:29;;;;;;;18.48;9.13;;;;;;;21.77;52.10;96621.53;5021894;28;20036;-63
2021/04/30 08:06:55;;;;;;;22.65;9.60;;;;;;;23.73;50.46;96897.00;5021228;28;20381;-64
2021/04/30 08:09:21;;;;;;;21.92;9.60;;;;;;;23.32;49.12;96854.09;5023298;28;20120;-64
2021/04/30 08:11:46;;;;;;;17.98;9.38;;;;;;;23.50;47.49;96817.50;5022719;28;20036;-64
2021/04/30 08:14:12;;;;;;;15.40;8.70;;;;;;;24.04;46.37;96899.94;5023213;28;20106;-64
2021/04/30 08:16:38;;;;;;;15.13;7.55;;;;;;;24.24;46.78;96903.19;5022804;28;20404;-64
2021/04/30 08:19:05;;;;;;;18.35;8.23;;;;;;;24.31;45.51;96865.31;5024831;28;20412;-63
2021/04/30 08:21:31;;;;;;;12.85;7.88;;;;;;;23.81;45.05;96779.50;5024415;28;20033;-65
2021/04/30 08:23:57;;;;;;;14.93;9.00;;;;;;;24.67;44.59;96903.13;5025122;28;20040;-63
2021/04/30 08:26:23;;;;;;;21.98;9.43;;;;;;;24.64;44.51;96904.00;5023971;28;20037;-62
2021/04/30 08:28:49;;;;;;;18.83;8.15;;;;;;;24.37;45.28;96849.28;5022637;28;20099;-61
2021/04/30 08:31:15;;;;;;;17.30;7.68;;;;;;;24.68;44.37;96893.34;5023773;28;20060;-62
2021/04/30 08:33:41;;;;;;;16.23;7.75;;;;;;;24.35;42.65;96857.47;5024614;28;20041;-62
2021/04/30 08:36:06;;;;;;;15.00;8.18;;;;;;;24.54;43.77;96905.22;5024014;28;20468;-62
2021/04/30 08:38:32;;;;;;;10.05;7.30;;;;;;;24.63;43.09;96884.63;5022242;28;20060;-62
2021/04/30 08:40:58;;;;;;;15.65;7.40;;;;;;;23.62;43.67;96754.41;5023822;28;20063;-64
2021/04/30 08:43:24;;;;;;;16.63;7.40;;;;;;;24.77;44.36;96946.44;5023887;28;20418;-63
2021/04/30 08:45:54;;;;;;;19.83;8.63;;;;;;;24.88;42.65;96885.22;5021736;28;20053;-64
2021/04/30 08:48:20;;;;;;;10.32;7.18;;;;;;;24.97;43.73;96893.75;5024418;28;20080;-61
2021/04/30 08:50:47;;;;;;;11.85;7.38;;;;;;;25.07;43.04;96892.50;5023807;28;20115;-65
2021/04/30 08:53:13;;;;;;;12.73;7.22;;;;;;;24.96;40.69;96840.38;5022151;28;20076;-64
2021/04/30 08:55:39;;;;;;;8.80;5.90;;;;;;;23.75;37.01;96673.06;5021910;28;20029;-65
2021/04/30 08:58:07;;;;;;;13.52;7.20;;;;;;;25.35;38.83;96881.22;5021034;28;20033;-62
2021/04/30 09:00:33;;;;;;;15.48;6.78;;;;;;;24.73;40.28;96748.22;5023025;28;20180;-62
2021/04/30 09:02:59;;;;;;;15.88;6.55;;;;;;;25.76;37.85;96881.38;5021196;28;20479;-66
2021/04/30 09:05:27;;;;;;;14.35;7.13;;;;;;;25.95;39.24;96882.94;5022967;28;20619;-63
2021/04/30 09:07:56;;;;;;;10.15;7.20;;;;;;;25.61;40.46;96845.63;5021781;28;20049;-64
2021/04/30 09:10:22;;;;;;;9.60;7.20;;;;;;;25.76;39.51;96853.00;5022689;28;20036;-62
2021/04/30 09:13:11;;;;;;;16.05;7.88;;;;;;;25.99;38.88;96877.88;5023649;28;20044;-61
2021/04/30 09:15:41;;;;;;;10.18;7.32;;;;;;;25.85;41.42;96855.03;5021194;28;20036;-61
2021/04/30 09:18:33;;;;;;;11.05;7.63;;;;;;;25.83;41.49;96871.75;5023029;28;20048;-61
2021/04/30 09:21:07;;;;;;;10.93;7.80;;;;;;;25.21;42.56;96761.44;5021710;28;20065;-62
2021/04/30 09:23:45;;;;;;;13.43;8.00;;;;;;;25.99;42.07;96874.22;5021641;28;20120;-69
2021/04/30 09:26:30;;;;;;;11.20;7.57;;;;;;;26.07;40.84;96879.16;5023057;28;20043;-69
2021/04/30 09:29:05;;;;;;;13.45;8.02;;;;;;;26.20;40.63;96870.44;5018519;28;20045;-70
2021/04/30 09:31:32;;;;;;;9.75;7.10;;;;;;;25.74;38.69;96815.00;5028870;28;20037;-70
2021/04/30 09:34:17;;;;;;;11.07;6.57;;;;;;;26.26;37.87;96868.53;5022858;28;20094;-70
2021/04/30 09:36:57;;;;;;;14.27;7.45;;;;;;;26.36;38.86;96867.22;5022416;28;20029;-70
2021/04/30 09:39:23;;;;;;;13.65;7.80;;;;;;;26.36;35.14;96870.06;5023162;28;20037;-70
2021/04/30 09:42:09;;;;;;;9.73;7.28;;;;;;;26.00;37.46;96828.38;5022699;28;20033;-69
2021/04/30 09:44:38;;;;;;;16.05;7.03;;;;;;;26.45;35.78;96872.88;5021577;28;20496;-71
2021/04/30 09:47:17;;;;;;;11.85;8.38;;;;;;;26.41;35.17;96880.78;5023588;28;20065;-71
2021/04/30 09:49:44;;;;;;;14.27;8.23;;;;;;;26.26;35.36;96826.72;5023442;28;20029;-71
2021/04/30 09:52:11;;;;;;;10.55;6.95;;;;;;;26.38;36.25;96814.34;5022488;28;20069;-71
2021/04/30 09:54:38;;;;;;;8.48;6.63;;;;;;;26.70;35.43;96858.25;5023109;28;20026;-71
2021/04/30 09:57:15;;;;;;;12.18;8.07;;;;;;;26.92;37.17;96864.47;5022534;28;20041;-71
2021/04/30 09:59:43;;;;;;;15.07;7.75;;;;;;;26.67;36.29;96830.81;5021304;28;20132;-66
2021/04/30 10:02:15;;;;;;;16.23;8.15;;;;;;;26.68;35.19;96829.56;5021547;28;20662;-64
2021/04/30 10:04:42;;;;;;;12.77;8.77;;;;;;;27.20;34.77;96857.34;5002400;28;20505;-67
2021/04/30 10:07:09;;;;;;;10.65;6.95;;;;;;;26.78;33.94;96751.47;5019089;28;20037;-62
2021/04/30 10:15:31;;;;;;;10.32;7.88;;;;;;;27.86;32.84;96853.00;5103657;27;813284;-68
2021/04/30 10:17:58;;;;;;;13.75;7.97;;;;;;;27.96;31.93;96851.66;5100741;27;20040;-67
2021/04/30 10:20:24;;;;;;;16.63;8.43;;;;;;;28.22;32.54;96851.09;5099163;28;20063;-61
2021/04/30 10:22:51;;;;;;;11.27;7.68;;;;;;;28.34;32.84;96847.94;5117346;28;20118;-68
2021/04/30 10:25:18;;;;;;;14.30;9.10;;;;;;;28.47;31.83;96856.19;5119393;28;20050;-71
2021/04/30 10:27:53;;;;;;;12.60;7.70;;;;;;;27.85;33.25;96799.41;5120896;27;20032;-69
2021/04/30 10:30:29;;;;;;;11.02;7.80;;;;;;;28.23;30.54;96844.09;5121061;27;20031;-67
2021/04/30 10:33:43;;;;;;;10.45;7.82;;;;;;;28.18;31.56;96812.16;5118964;28;20051;-63
2021/04/30 10:36:19;;;;;;;14.67;7.03;;;;;;;27.87;30.62;96739.88;5107070;28;20470;-68
2021/04/30 10:38:55;;;;;;;11.35;7.00;;;;;;;28.49;29.50;96833.69;5118915;28;20170;-66
2021/04/30 10:41:37;;;;;;;13.40;6.97;;;;;;;27.87;28.93;96757.75;5117827;28;20092;-72
2021/04/30 10:44:20;;;;;;;10.05;7.00;;;;;;;28.48;28.72;96832.13;5119653;27;20146;-63
2021/04/30 10:46:47;;;;;;;18.65;7.30;;;;;;;28.84;29.12;96828.78;5117575;28;20340;-67
2021/04/30 10:49:21;;;;;;;11.30;7.20;;;;;;;28.88;29.34;96798.00;5119567;27;20031;-68
2021/04/30 10:54:28;;;;;;;15.52;8.20;;;;;;;29.51;29.24;96814.13;4959801;28;20404;-69
2021/04/30 10:57:02;;;;;;;13.25;7.20;;;;;;;29.76;27.15;96824.03;4949451;28;20038;-73
2021/04/30 10:59:39;;;;;;;16.40;8.00;;;;;;;29.99;26.67;96815.19;4945499;28;20094;-67
2021/04/30 11:02:20;;;;;;;12.48;7.38;;;;;;;29.63;26.59;96733.00;4945871;28;20023;-68
2021/04/30 11:05:19;;;;;;;13.48;7.72;;;;;;;30.14;26.16;96810.16;4940964;28;20047;-70
2021/04/30 11:07:50;;;;;;;16.45;7.57;;;;;;;30.06;25.89;96771.09;4945190;28;20119;-70
2021/04/30 11:10:30;;;;;;;14.77;7.50;;;;;;;30.46;26.69;96814.59;4949147;28;20043;-68
2021/04/30 11:13:17;;;;;;;15.82;7.00;;;;;;;30.21;26.47;96789.69;4952308;28;20134;-67
2021/04/30 11:15:49;;;;;;;11.52;7.68;;;;;;;29.89;26.42;96748.09;4961215;28;20497;-71
2021/04/30 11:18:24;;;;;;;16.35;6.70;;;;;;;29.95;26.80;96768.94;4959585;28;20117;-69
2021/04/30 11:21:12;;;;;;;10.90;7.43;;;;;;;30.45;26.97;96801.59;4961305;28;20125;-67
2021/04/30 11:23:39;;;;;;;13.02;7.30;;;;;;;30.68;26.37;96803.31;4949333;28;20130;-68
2021/04/30 11:26:07;;;;;;;20.55;9.20;;;;;;;30.47;26.36;96795.34;4942372;28;20043;-71
2021/04/30 11:28:33;;;;;;;18.00;7.57;;;;;;;30.97;26.79;96801.44;4945087;28;20039;-69
2021/04/30 11:31:05;;;;;;;12.00;7.22;;;;;;;31.09;25.90;96794.47;4950286;28;20083;-71